Kezdőlap
METAR-TAF:

METAR-TAF

Repülőterek :

La Chaux-de-Fonds, Svájc

földrajzi szélesség: 47-05-03N, földrajzi hosszúság: 006-47-37E, magasság: 1027 m

Jelenlegi meteorológiai megfigyelések

A jelentés 26 perccel ezelõtt készült, 13:20 UTC
Nyugati szél 7 kt, dél-délnyugati és északnyugati között változik
Hőmérséklet 2°C
Páratartalom 75%
Légköri nyomás 1028 hPa
Látótávolság 10 km, vagy több
Kevés felhő 2300 lábon
Szakadozott felhőzet 3000 lábon

METAR: LSGC 181320Z 26007KT 210V310 9999 FEW023 BKN030 02/M02 Q1028

Idő: 14:46 (13:46 UTC)

Előrejelzés

A jelentés 2 órával és 21 perccel ezelõtt készült, 11:25 UTC
Az előrejelzés 18-én 12 óra UTC és 18-én 21 óra UTC között érvényes
Délnyugati szél 8 kt
Látótávolság 10 km, vagy több
Szakadozott felhőzet 1400 lábon
18-én 12 óra UTC és 18-én 14 óra UTC között fokozatosan kialakuló
Szórványos felhőzet 2500 lábon

TAF: LSGC 181125Z 1812/1821 23008KT 9999 BKN014 BECMG 1812/1814 SCT025

Meteorológiai megfigyelések és előrejelzések több, mint 4000 repülőtéren (METAR és TAF jelentéseket).

A térképen piros és sárga pontok jelzik az elérhető meteorológiai állomásokat.

Mozgassa az egeret a pont fölött, hogy megjelenjen az állomás neve.

Azután kattintson az időjárási megfigyelések és előrejelzések megtekintéséhez.

A térkép megváltoztatása: kattintson a fekete keresztel jelölt zöld gombra ráközelítéshez, a vonallal jelölt zöld gombra távolításhoz, vagy a zöld nyilakra a szomszédos térképek eléréséhez.


METAR-TAF: